sensor_id;sensor_type;location;lat;lon;timestamp;temperature;humidity
13203;DHT22;6666;51.626;7.530;2022-12-15T00:00:03;-5.60;99.90
13203;DHT22;6666;51.626;7.530;2022-12-15T00:02:49;-5.60;99.90
13203;DHT22;6666;51.626;7.530;2022-12-15T00:05:34;-5.60;99.90
13203;DHT22;6666;51.626;7.530;2022-12-15T00:08:20;-5.70;99.90
13203;DHT22;6666;51.626;7.530;2022-12-15T00:11:06;-5.70;99.90
13203;DHT22;6666;51.626;7.530;2022-12-15T00:13:53;-5.70;99.90
13203;DHT22;6666;51.626;7.530;2022-12-15T00:16:39;-5.70;99.90
13203;DHT22;6666;51.626;7.530;2022-12-15T00:19:25;-5.70;99.90
13203;DHT22;6666;51.626;7.530;2022-12-15T00:22:10;-5.60;99.90
13203;DHT22;6666;51.626;7.530;2022-12-15T00:24:56;-5.60;99.90
13203;DHT22;6666;51.626;7.530;2022-12-15T00:27:42;-5.50;99.90
13203;DHT22;6666;51.626;7.530;2022-12-15T00:30:29;-5.60;99.90
13203;DHT22;6666;51.626;7.530;2022-12-15T00:33:16;-5.50;99.90
13203;DHT22;6666;51.626;7.530;2022-12-15T00:36:01;-5.50;99.90
13203;DHT22;6666;51.626;7.530;2022-12-15T00:38:48;-5.40;99.90
13203;DHT22;6666;51.626;7.530;2022-12-15T00:41:17;-5.50;99.90
13203;DHT22;6666;51.626;7.530;2022-12-15T00:43:45;-5.60;99.90
13203;DHT22;6666;51.626;7.530;2022-12-15T00:46:15;-5.60;99.90
13203;DHT22;6666;51.626;7.530;2022-12-15T00:49:01;-5.60;99.90
13203;DHT22;6666;51.626;7.530;2022-12-15T00:51:29;-5.60;99.90
13203;DHT22;6666;51.626;7.530;2022-12-15T00:54:15;-5.70;99.90
13203;DHT22;6666;51.626;7.530;2022-12-15T00:57:01;-5.70;99.90
13203;DHT22;6666;51.626;7.530;2022-12-15T00:59:46;-5.70;99.90
13203;DHT22;6666;51.626;7.530;2022-12-15T01:02:33;-5.80;99.90
13203;DHT22;6666;51.626;7.530;2022-12-15T01:05:19;-5.80;99.90
13203;DHT22;6666;51.626;7.530;2022-12-15T01:08:05;-5.80;99.90
13203;DHT22;6666;51.626;7.530;2022-12-15T01:10:51;-5.70;99.90
13203;DHT22;6666;51.626;7.530;2022-12-15T01:13:36;-5.80;99.90
13203;DHT22;6666;51.626;7.530;2022-12-15T01:16:22;-5.80;99.90
13203;DHT22;6666;51.626;7.530;2022-12-15T01:19:09;-5.80;99.90
13203;DHT22;6666;51.626;7.530;2022-12-15T01:21:55;-5.80;99.90
13203;DHT22;6666;51.626;7.530;2022-12-15T01:24:23;-5.70;99.90
13203;DHT22;6666;51.626;7.530;2022-12-15T01:26:51;-5.80;99.90
13203;DHT22;6666;51.626;7.530;2022-12-15T01:29:20;-5.80;99.90
13203;DHT22;6666;51.626;7.530;2022-12-15T01:31:48;-5.80;99.90
13203;DHT22;6666;51.626;7.530;2022-12-15T01:34:18;-5.80;99.90
13203;DHT22;6666;51.626;7.530;2022-12-15T01:36:48;-5.70;99.90
13203;DHT22;6666;51.626;7.530;2022-12-15T01:39:16;-5.70;99.90
13203;DHT22;6666;51.626;7.530;2022-12-15T01:41:45;-5.80;99.90
13203;DHT22;6666;51.626;7.530;2022-12-15T01:44:17;-5.80;99.90
13203;DHT22;6666;51.626;7.530;2022-12-15T01:46:47;-5.80;99.90
13203;DHT22;6666;51.626;7.530;2022-12-15T01:49:20;-5.70;99.90
13203;DHT22;6666;51.626;7.530;2022-12-15T01:51:54;-5.70;99.90
13203;DHT22;6666;51.626;7.530;2022-12-15T01:54:26;-5.70;99.90
13203;DHT22;6666;51.626;7.530;2022-12-15T01:57:01;-5.80;99.90
13203;DHT22;6666;51.626;7.530;2022-12-15T01:59:34;-5.90;99.90
13203;DHT22;6666;51.626;7.530;2022-12-15T02:02:03;-5.90;99.90
13203;DHT22;6666;51.626;7.530;2022-12-15T02:04:33;-5.80;99.90
13203;DHT22;6666;51.626;7.530;2022-12-15T02:07:03;-5.80;99.90
13203;DHT22;6666;51.626;7.530;2022-12-15T02:09:32;-5.80;99.90
13203;DHT22;6666;51.626;7.530;2022-12-15T02:12:04;-5.80;99.90
13203;DHT22;6666;51.626;7.530;2022-12-15T02:14:52;-5.80;99.90
13203;DHT22;6666;51.626;7.530;2022-12-15T02:17:32;-5.60;99.90
13203;DHT22;6666;51.626;7.530;2022-12-15T02:20:32;-5.50;99.90
13203;DHT22;6666;51.626;7.530;2022-12-15T02:26:44;-5.70;99.90
13203;DHT22;6666;51.626;7.530;2022-12-15T02:29:39;-5.70;99.90
13203;DHT22;6666;51.626;7.530;2022-12-15T02:32:16;-5.60;99.90
13203;DHT22;6666;51.626;7.530;2022-12-15T02:34:49;-5.80;99.90
13203;DHT22;6666;51.626;7.530;2022-12-15T02:37:24;-5.80;99.90
13203;DHT22;6666;51.626;7.530;2022-12-15T02:39:54;-5.70;99.90
13203;DHT22;6666;51.626;7.530;2022-12-15T02:42:23;-5.60;99.90
13203;DHT22;6666;51.626;7.530;2022-12-15T02:44:53;-5.60;99.90
13203;DHT22;6666;51.626;7.530;2022-12-15T02:47:31;-5.60;99.90
13203;DHT22;6666;51.626;7.530;2022-12-15T02:50:27;-5.70;99.90
13203;DHT22;6666;51.626;7.530;2022-12-15T02:53:12;-5.80;99.90
13203;DHT22;6666;51.626;7.530;2022-12-15T02:55:52;-5.80;99.90
13203;DHT22;6666;51.626;7.530;2022-12-15T02:58:28;-5.80;99.90
13203;DHT22;6666;51.626;7.530;2022-12-15T03:01:01;-5.90;99.90
13203;DHT22;6666;51.626;7.530;2022-12-15T03:03:33;-5.90;99.90
13203;DHT22;6666;51.626;7.530;2022-12-15T03:06:04;-5.90;99.90
13203;DHT22;6666;51.626;7.530;2022-12-15T03:08:32;-5.90;99.90
13203;DHT22;6666;51.626;7.530;2022-12-15T03:11:01;-5.80;99.90
13203;DHT22;6666;51.626;7.530;2022-12-15T03:13:30;-5.80;99.90
13203;DHT22;6666;51.626;7.530;2022-12-15T03:15:59;-5.80;99.90
13203;DHT22;6666;51.626;7.530;2022-12-15T03:18:27;-5.80;99.90
13203;DHT22;6666;51.626;7.530;2022-12-15T03:20:57;-5.80;99.90
13203;DHT22;6666;51.626;7.530;2022-12-15T03:23:25;-5.80;99.90
13203;DHT22;6666;51.626;7.530;2022-12-15T03:25:55;-5.70;99.90
13203;DHT22;6666;51.626;7.530;2022-12-15T03:28:23;-5.70;99.90
13203;DHT22;6666;51.626;7.530;2022-12-15T03:30:51;-5.80;99.90
13203;DHT22;6666;51.626;7.530;2022-12-15T03:33:19;-5.80;99.90
13203;DHT22;6666;51.626;7.530;2022-12-15T03:35:48;-5.60;99.90
13203;DHT22;6666;51.626;7.530;2022-12-15T03:38:18;-5.60;99.90
13203;DHT22;6666;51.626;7.530;2022-12-15T03:40:46;-5.70;99.90
13203;DHT22;6666;51.626;7.530;2022-12-15T03:43:15;-5.60;99.90
13203;DHT22;6666;51.626;7.530;2022-12-15T03:45:43;-5.60;99.90
13203;DHT22;6666;51.626;7.530;2022-12-15T03:48:12;-5.60;99.90
13203;DHT22;6666;51.626;7.530;2022-12-15T03:50:40;-5.70;99.90
13203;DHT22;6666;51.626;7.530;2022-12-15T03:53:08;-5.60;99.90
13203;DHT22;6666;51.626;7.530;2022-12-15T03:55:38;-5.50;99.90
13203;DHT22;6666;51.626;7.530;2022-12-15T03:58:06;-5.60;99.90
13203;DHT22;6666;51.626;7.530;2022-12-15T04:00:34;-5.50;99.90
13203;DHT22;6666;51.626;7.530;2022-12-15T04:03:03;-5.60;99.90
13203;DHT22;6666;51.626;7.530;2022-12-15T04:05:33;-5.70;99.90
13203;DHT22;6666;51.626;7.530;2022-12-15T04:08:02;-5.60;99.90
13203;DHT22;6666;51.626;7.530;2022-12-15T04:10:31;-5.60;99.90
13203;DHT22;6666;51.626;7.530;2022-12-15T04:13:04;-5.50;99.90
13203;DHT22;6666;51.626;7.530;2022-12-15T04:15:34;-5.40;99.90
13203;DHT22;6666;51.626;7.530;2022-12-15T04:18:04;-5.30;99.90
13203;DHT22;6666;51.626;7.530;2022-12-15T04:20:32;-5.40;99.90
13203;DHT22;6666;51.626;7.530;2022-12-15T04:23:01;-5.40;99.90
13203;DHT22;6666;51.626;7.530;2022-12-15T04:25:29;-5.40;99.90
13203;DHT22;6666;51.626;7.530;2022-12-15T04:28:16;-5.40;99.90
13203;DHT22;6666;51.626;7.530;2022-12-15T04:31:06;-5.30;99.90
13203;DHT22;6666;51.626;7.530;2022-12-15T04:33:55;-5.20;99.90
13203;DHT22;6666;51.626;7.530;2022-12-15T04:36:43;-5.10;99.90
13203;DHT22;6666;51.626;7.530;2022-12-15T04:39:30;-5.10;99.90
13203;DHT22;6666;51.626;7.530;2022-12-15T04:42:16;-5.10;99.90
13203;DHT22;6666;51.626;7.530;2022-12-15T04:45:05;-5.10;99.90
13203;DHT22;6666;51.626;7.530;2022-12-15T04:47:52;-5.10;99.90
13203;DHT22;6666;51.626;7.530;2022-12-15T04:50:38;-5.10;99.90
13203;DHT22;6666;51.626;7.530;2022-12-15T04:53:23;-5.10;99.90
13203;DHT22;6666;51.626;7.530;2022-12-15T04:56:10;-5.20;99.90
13203;DHT22;6666;51.626;7.530;2022-12-15T04:58:58;-5.10;99.90
13203;DHT22;6666;51.626;7.530;2022-12-15T05:01:45;-5.10;99.90
13203;DHT22;6666;51.626;7.530;2022-12-15T05:04:32;-5.00;99.90
13203;DHT22;6666;51.626;7.530;2022-12-15T05:07:17;-5.00;99.90
13203;DHT22;6666;51.626;7.530;2022-12-15T05:10:04;-4.90;99.90
13203;DHT22;6666;51.626;7.530;2022-12-15T05:12:50;-4.80;99.90
13203;DHT22;6666;51.626;7.530;2022-12-15T05:15:36;-4.70;99.90
13203;DHT22;6666;51.626;7.530;2022-12-15T05:18:23;-4.60;99.90
13203;DHT22;6666;51.626;7.530;2022-12-15T05:21:09;-4.50;99.90
13203;DHT22;6666;51.626;7.530;2022-12-15T05:23:54;-4.50;99.90
13203;DHT22;6666;51.626;7.530;2022-12-15T05:26:40;-4.40;99.90
13203;DHT22;6666;51.626;7.530;2022-12-15T05:29:25;-4.40;99.90
13203;DHT22;6666;51.626;7.530;2022-12-15T05:32:10;-4.40;99.90
13203;DHT22;6666;51.626;7.530;2022-12-15T05:34:40;-4.40;99.90
13203;DHT22;6666;51.626;7.530;2022-12-15T05:37:08;-4.50;99.90
13203;DHT22;6666;51.626;7.530;2022-12-15T05:39:37;-4.60;99.90
13203;DHT22;6666;51.626;7.530;2022-12-15T05:42:05;-4.60;99.90
13203;DHT22;6666;51.626;7.530;2022-12-15T05:44:33;-4.70;99.90
13203;DHT22;6666;51.626;7.530;2022-12-15T05:47:02;-4.70;99.90
13203;DHT22;6666;51.626;7.530;2022-12-15T05:49:30;-4.60;99.90
13203;DHT22;6666;51.626;7.530;2022-12-15T05:52:00;-4.60;99.90
13203;DHT22;6666;51.626;7.530;2022-12-15T05:54:29;-4.60;99.90
13203;DHT22;6666;51.626;7.530;2022-12-15T05:56:57;-4.60;99.90
13203;DHT22;6666;51.626;7.530;2022-12-15T05:59:25;-4.70;99.90
13203;DHT22;6666;51.626;7.530;2022-12-15T06:01:53;-4.80;99.90
13203;DHT22;6666;51.626;7.530;2022-12-15T06:04:22;-4.70;99.90
13203;DHT22;6666;51.626;7.530;2022-12-15T06:06:50;-4.60;99.90
13203;DHT22;6666;51.626;7.530;2022-12-15T06:09:20;-4.50;99.90
13203;DHT22;6666;51.626;7.530;2022-12-15T06:11:48;-4.50;99.90
13203;DHT22;6666;51.626;7.530;2022-12-15T06:14:16;-4.60;99.90
13203;DHT22;6666;51.626;7.530;2022-12-15T06:16:44;-4.60;99.90
13203;DHT22;6666;51.626;7.530;2022-12-15T06:19:17;-4.60;99.90
13203;DHT22;6666;51.626;7.530;2022-12-15T06:21:46;-4.50;99.90
13203;DHT22;6666;51.626;7.530;2022-12-15T06:24:14;-4.50;99.90
13203;DHT22;6666;51.626;7.530;2022-12-15T06:26:44;-4.70;99.90
13203;DHT22;6666;51.626;7.530;2022-12-15T06:29:16;-4.80;99.90
13203;DHT22;6666;51.626;7.530;2022-12-15T06:31:44;-4.80;99.90
13203;DHT22;6666;51.626;7.530;2022-12-15T06:34:15;-4.80;99.90
13203;DHT22;6666;51.626;7.530;2022-12-15T06:36:44;-4.80;99.90
13203;DHT22;6666;51.626;7.530;2022-12-15T06:39:14;-4.70;99.90
13203;DHT22;6666;51.626;7.530;2022-12-15T06:41:43;-4.70;99.90
13203;DHT22;6666;51.626;7.530;2022-12-15T06:44:13;-4.70;99.90
13203;DHT22;6666;51.626;7.530;2022-12-15T06:46:42;-4.80;99.90
13203;DHT22;6666;51.626;7.530;2022-12-15T06:49:11;-4.80;99.90
13203;DHT22;6666;51.626;7.530;2022-12-15T06:51:40;-5.00;99.90
13203;DHT22;6666;51.626;7.530;2022-12-15T06:54:10;-5.00;99.90
13203;DHT22;6666;51.626;7.530;2022-12-15T06:56:39;-5.00;99.90
13203;DHT22;6666;51.626;7.530;2022-12-15T06:59:10;-5.00;99.90
13203;DHT22;6666;51.626;7.530;2022-12-15T07:01:39;-5.00;99.90
13203;DHT22;6666;51.626;7.530;2022-12-15T07:04:09;-5.10;99.90
13203;DHT22;6666;51.626;7.530;2022-12-15T07:06:38;-5.10;99.90
13203;DHT22;6666;51.626;7.530;2022-12-15T07:09:12;-5.20;99.90
13203;DHT22;6666;51.626;7.530;2022-12-15T07:11:42;-5.10;99.90
13203;DHT22;6666;51.626;7.530;2022-12-15T07:14:12;-5.20;99.90
13203;DHT22;6666;51.626;7.530;2022-12-15T07:16:40;-5.20;99.90
13203;DHT22;6666;51.626;7.530;2022-12-15T07:19:09;-5.20;99.90
13203;DHT22;6666;51.626;7.530;2022-12-15T07:21:38;-5.10;99.90
13203;DHT22;6666;51.626;7.530;2022-12-15T07:24:09;-5.20;99.90
13203;DHT22;6666;51.626;7.530;2022-12-15T07:26:38;-5.30;99.90
13203;DHT22;6666;51.626;7.530;2022-12-15T07:29:08;-5.30;99.90
13203;DHT22;6666;51.626;7.530;2022-12-15T07:31:39;-5.40;99.90
13203;DHT22;6666;51.626;7.530;2022-12-15T07:34:07;-5.40;99.90
13203;DHT22;6666;51.626;7.530;2022-12-15T07:36:36;-5.40;99.90
13203;DHT22;6666;51.626;7.530;2022-12-15T07:39:04;-5.30;99.90
13203;DHT22;6666;51.626;7.530;2022-12-15T07:41:32;-5.50;99.90
13203;DHT22;6666;51.626;7.530;2022-12-15T07:44:01;-5.50;99.90
13203;DHT22;6666;51.626;7.530;2022-12-15T07:46:29;-5.50;99.90
13203;DHT22;6666;51.626;7.530;2022-12-15T07:48:59;-5.50;99.90
13203;DHT22;6666;51.626;7.530;2022-12-15T07:51:27;-5.40;99.90
13203;DHT22;6666;51.626;7.530;2022-12-15T07:53:55;-5.40;99.90
13203;DHT22;6666;51.626;7.530;2022-12-15T07:56:24;-5.40;99.90
13203;DHT22;6666;51.626;7.530;2022-12-15T07:58:52;-5.50;99.90
13203;DHT22;6666;51.626;7.530;2022-12-15T08:01:20;-5.50;99.90
13203;DHT22;6666;51.626;7.530;2022-12-15T08:03:48;-5.60;99.90
13203;DHT22;6666;51.626;7.530;2022-12-15T08:06:18;-5.50;99.90
13203;DHT22;6666;51.626;7.530;2022-12-15T08:08:47;-5.50;99.90
13203;DHT22;6666;51.626;7.530;2022-12-15T08:11:18;-5.50;99.90
13203;DHT22;6666;51.626;7.530;2022-12-15T08:13:47;-5.40;99.90
13203;DHT22;6666;51.626;7.530;2022-12-15T08:16:36;-5.40;99.90
13203;DHT22;6666;51.626;7.530;2022-12-15T08:19:05;-5.40;99.90
13203;DHT22;6666;51.626;7.530;2022-12-15T08:21:38;-5.40;99.90
13203;DHT22;6666;51.626;7.530;2022-12-15T08:24:07;-5.30;99.90
13203;DHT22;6666;51.626;7.530;2022-12-15T08:26:36;-5.30;99.90
13203;DHT22;6666;51.626;7.530;2022-12-15T08:29:07;-5.30;99.90
13203;DHT22;6666;51.626;7.530;2022-12-15T08:31:57;-5.30;99.90
13203;DHT22;6666;51.626;7.530;2022-12-15T08:34:25;-5.30;99.90
13203;DHT22;6666;51.626;7.530;2022-12-15T08:36:55;-5.20;99.90
13203;DHT22;6666;51.626;7.530;2022-12-15T08:39:23;-5.10;99.90
13203;DHT22;6666;51.626;7.530;2022-12-15T08:41:51;-5.00;99.90
13203;DHT22;6666;51.626;7.530;2022-12-15T08:44:20;-4.90;99.90
13203;DHT22;6666;51.626;7.530;2022-12-15T08:46:48;-4.90;99.90
13203;DHT22;6666;51.626;7.530;2022-12-15T08:49:17;-4.90;99.90
13203;DHT22;6666;51.626;7.530;2022-12-15T08:51:48;-4.80;99.90
13203;DHT22;6666;51.626;7.530;2022-12-15T08:54:19;-4.70;99.90
13203;DHT22;6666;51.626;7.530;2022-12-15T08:56:48;-4.60;99.90
13203;DHT22;6666;51.626;7.530;2022-12-15T08:59:17;-4.60;99.90
13203;DHT22;6666;51.626;7.530;2022-12-15T09:01:46;-4.50;99.90
13203;DHT22;6666;51.626;7.530;2022-12-15T09:04:15;-4.40;99.90
13203;DHT22;6666;51.626;7.530;2022-12-15T09:06:44;-4.30;99.90
13203;DHT22;6666;51.626;7.530;2022-12-15T09:09:18;-4.30;99.90
13203;DHT22;6666;51.626;7.530;2022-12-15T09:11:47;-4.30;99.90
13203;DHT22;6666;51.626;7.530;2022-12-15T09:14:15;-4.20;99.90
13203;DHT22;6666;51.626;7.530;2022-12-15T09:16:51;-4.10;99.90
13203;DHT22;6666;51.626;7.530;2022-12-15T09:19:19;-4.00;99.90
13203;DHT22;6666;51.626;7.530;2022-12-15T09:21:48;-3.90;99.90
13203;DHT22;6666;51.626;7.530;2022-12-15T09:24:16;-3.80;99.90
13203;DHT22;6666;51.626;7.530;2022-12-15T09:26:59;-3.70;99.90
13203;DHT22;6666;51.626;7.530;2022-12-15T09:29:29;-3.60;99.90
13203;DHT22;6666;51.626;7.530;2022-12-15T09:31:57;-3.60;99.90
13203;DHT22;6666;51.626;7.530;2022-12-15T09:34:26;-3.50;99.90
13203;DHT22;6666;51.626;7.530;2022-12-15T09:36:54;-3.40;99.90
13203;DHT22;6666;51.626;7.530;2022-12-15T09:39:23;-3.40;99.90
13203;DHT22;6666;51.626;7.530;2022-12-15T09:41:54;-3.30;99.90
13203;DHT22;6666;51.626;7.530;2022-12-15T09:44:26;-3.20;99.90
13203;DHT22;6666;51.626;7.530;2022-12-15T09:47:03;-3.00;99.90
13203;DHT22;6666;51.626;7.530;2022-12-15T09:49:52;-3.00;99.90
13203;DHT22;6666;51.626;7.530;2022-12-15T09:52:24;-3.00;99.90
13203;DHT22;6666;51.626;7.530;2022-12-15T09:54:53;-2.90;99.90
13203;DHT22;6666;51.626;7.530;2022-12-15T09:57:32;-2.80;99.90
13203;DHT22;6666;51.626;7.530;2022-12-15T10:00:13;-2.80;99.90
13203;DHT22;6666;51.626;7.530;2022-12-15T10:03:08;-2.70;99.90
13203;DHT22;6666;51.626;7.530;2022-12-15T10:05:57;-2.60;99.90
13203;DHT22;6666;51.626;7.530;2022-12-15T10:08:45;-2.60;99.90
13203;DHT22;6666;51.626;7.530;2022-12-15T10:11:42;-2.50;99.90
13203;DHT22;6666;51.626;7.530;2022-12-15T10:14:23;-2.50;99.90
13203;DHT22;6666;51.626;7.530;2022-12-15T10:17:02;-2.50;99.90
13203;DHT22;6666;51.626;7.530;2022-12-15T10:19:37;-2.40;99.90
13203;DHT22;6666;51.626;7.530;2022-12-15T10:22:10;-2.40;99.90
13203;DHT22;6666;51.626;7.530;2022-12-15T10:24:40;-2.30;99.90
13203;DHT22;6666;51.626;7.530;2022-12-15T10:27:42;-2.30;99.90
13203;DHT22;6666;51.626;7.530;2022-12-15T10:30:15;-2.30;99.90
13203;DHT22;6666;51.626;7.530;2022-12-15T10:32:49;-2.20;99.90
13203;DHT22;6666;51.626;7.530;2022-12-15T10:35:21;-2.20;99.90
13203;DHT22;6666;51.626;7.530;2022-12-15T10:37:50;-2.20;99.90
13203;DHT22;6666;51.626;7.530;2022-12-15T10:40:40;-2.00;99.90
13203;DHT22;6666;51.626;7.530;2022-12-15T10:43:12;-2.00;99.90
13203;DHT22;6666;51.626;7.530;2022-12-15T10:45:41;-1.90;99.90
13203;DHT22;6666;51.626;7.530;2022-12-15T10:48:18;-1.90;99.90
13203;DHT22;6666;51.626;7.530;2022-12-15T10:50:47;-1.80;99.90
13203;DHT22;6666;51.626;7.530;2022-12-15T10:53:33;-1.70;99.90
13203;DHT22;6666;51.626;7.530;2022-12-15T10:56:06;-1.80;99.90
13203;DHT22;6666;51.626;7.530;2022-12-15T10:58:46;-1.70;99.90
13203;DHT22;6666;51.626;7.530;2022-12-15T11:01:18;-1.70;99.90
13203;DHT22;6666;51.626;7.530;2022-12-15T11:03:49;-1.60;99.90
13203;DHT22;6666;51.626;7.530;2022-12-15T11:06:21;-1.60;99.90
13203;DHT22;6666;51.626;7.530;2022-12-15T11:08:53;-1.60;99.90
13203;DHT22;6666;51.626;7.530;2022-12-15T11:11:29;-1.60;99.90
13203;DHT22;6666;51.626;7.530;2022-12-15T11:14:19;-1.50;99.90
13203;DHT22;6666;51.626;7.530;2022-12-15T11:16:53;-1.50;99.90
13203;DHT22;6666;51.626;7.530;2022-12-15T11:19:37;-1.40;99.90
13203;DHT22;6666;51.626;7.530;2022-12-15T11:22:25;-1.40;99.90
13203;DHT22;6666;51.626;7.530;2022-12-15T11:25:00;-1.40;99.90
13203;DHT22;6666;51.626;7.530;2022-12-15T11:27:34;-1.40;99.90
13203;DHT22;6666;51.626;7.530;2022-12-15T11:30:11;-1.30;99.90
13203;DHT22;6666;51.626;7.530;2022-12-15T11:32:42;-1.30;99.90
13203;DHT22;6666;51.626;7.530;2022-12-15T11:35:21;-1.20;99.90
13203;DHT22;6666;51.626;7.530;2022-12-15T11:37:55;-1.20;99.90
13203;DHT22;6666;51.626;7.530;2022-12-15T11:40:35;-1.10;99.90
13203;DHT22;6666;51.626;7.530;2022-12-15T11:43:43;-1.10;99.90
13203;DHT22;6666;51.626;7.530;2022-12-15T11:46:21;-1.00;99.90
13203;DHT22;6666;51.626;7.530;2022-12-15T11:49:04;-1.00;99.90
13203;DHT22;6666;51.626;7.530;2022-12-15T11:51:41;-1.00;99.90
13203;DHT22;6666;51.626;7.530;2022-12-15T11:54:19;-0.90;99.90
13203;DHT22;6666;51.626;7.530;2022-12-15T11:56:55;-0.90;99.90
13203;DHT22;6666;51.626;7.530;2022-12-15T11:59:41;-0.80;99.90
13203;DHT22;6666;51.626;7.530;2022-12-15T12:02:38;-0.70;99.90
13203;DHT22;6666;51.626;7.530;2022-12-15T12:08:18;-0.70;99.90
13203;DHT22;6666;51.626;7.530;2022-12-15T12:10:55;-0.70;99.90
13203;DHT22;6666;51.626;7.530;2022-12-15T12:13:29;-0.70;99.90
13203;DHT22;6666;51.626;7.530;2022-12-15T12:16:09;-0.70;99.90
13203;DHT22;6666;51.626;7.530;2022-12-15T12:18:43;-0.60;99.90
13203;DHT22;6666;51.626;7.530;2022-12-15T12:21:19;-0.60;99.90
13203;DHT22;6666;51.626;7.530;2022-12-15T12:23:56;-0.60;99.90
13203;DHT22;6666;51.626;7.530;2022-12-15T12:26:30;-0.50;99.90
13203;DHT22;6666;51.626;7.530;2022-12-15T12:29:02;-0.50;99.90
13203;DHT22;6666;51.626;7.530;2022-12-15T12:31:39;-0.50;99.90
13203;DHT22;6666;51.626;7.530;2022-12-15T12:34:12;-0.50;99.90
13203;DHT22;6666;51.626;7.530;2022-12-15T12:36:43;-0.50;99.90
13203;DHT22;6666;51.626;7.530;2022-12-15T12:39:18;-0.40;99.90
13203;DHT22;6666;51.626;7.530;2022-12-15T12:41:53;-0.40;99.90
13203;DHT22;6666;51.626;7.530;2022-12-15T12:44:28;-0.40;99.90
13203;DHT22;6666;51.626;7.530;2022-12-15T12:47:03;-0.30;99.90
13203;DHT22;6666;51.626;7.530;2022-12-15T12:49:36;-0.30;99.90
13203;DHT22;6666;51.626;7.530;2022-12-15T12:52:18;-0.20;99.90
13203;DHT22;6666;51.626;7.530;2022-12-15T12:54:57;-0.10;99.90
13203;DHT22;6666;51.626;7.530;2022-12-15T12:57:35;-0.10;99.90
13203;DHT22;6666;51.626;7.530;2022-12-15T13:00:19;-0.10;99.90
13203;DHT22;6666;51.626;7.530;2022-12-15T13:05:41;0.00;99.90
13203;DHT22;6666;51.626;7.530;2022-12-15T13:14:46;0.10;99.90
13203;DHT22;6666;51.626;7.530;2022-12-15T13:17:29;0.00;99.90
13203;DHT22;6666;51.626;7.530;2022-12-15T13:20:23;0.00;99.90
13203;DHT22;6666;51.626;7.530;2022-12-15T13:22:54;0.10;99.90
13203;DHT22;6666;51.626;7.530;2022-12-15T13:25:39;0.10;99.90
13203;DHT22;6666;51.626;7.530;2022-12-15T13:28:27;0.10;99.90
13203;DHT22;6666;51.626;7.530;2022-12-15T13:34:23;0.10;99.90
13203;DHT22;6666;51.626;7.530;2022-12-15T13:37:01;0.00;99.90
13203;DHT22;6666;51.626;7.530;2022-12-15T13:42:33;0.10;99.90
13203;DHT22;6666;51.626;7.530;2022-12-15T13:45:43;0.10;99.90
13203;DHT22;6666;51.626;7.530;2022-12-15T13:48:25;0.10;99.90
13203;DHT22;6666;51.626;7.530;2022-12-15T13:53:59;0.00;99.90
13203;DHT22;6666;51.626;7.530;2022-12-15T13:56:43;0.20;99.90
13203;DHT22;6666;51.626;7.530;2022-12-15T13:59:30;0.30;99.90
13203;DHT22;6666;51.626;7.530;2022-12-15T14:02:02;0.30;99.90
13203;DHT22;6666;51.626;7.530;2022-12-15T14:04:30;0.30;99.90
13203;DHT22;6666;51.626;7.530;2022-12-15T14:07:01;0.20;99.90
13203;DHT22;6666;51.626;7.530;2022-12-15T14:09:32;0.20;99.90
13203;DHT22;6666;51.626;7.530;2022-12-15T14:12:02;0.20;99.90
13203;DHT22;6666;51.626;7.530;2022-12-15T14:14:33;0.40;99.90
13203;DHT22;6666;51.626;7.530;2022-12-15T14:17:06;0.30;99.90
13203;DHT22;6666;51.626;7.530;2022-12-15T14:19:37;0.30;99.90
13203;DHT22;6666;51.626;7.530;2022-12-15T14:22:18;0.20;99.90
13203;DHT22;6666;51.626;7.530;2022-12-15T14:25:00;0.20;99.90
13203;DHT22;6666;51.626;7.530;2022-12-15T14:27:30;0.10;99.90
13203;DHT22;6666;51.626;7.530;2022-12-15T14:30:10;0.10;99.90
13203;DHT22;6666;51.626;7.530;2022-12-15T14:32:40;0.00;99.90
13203;DHT22;6666;51.626;7.530;2022-12-15T14:35:12;0.00;99.90
13203;DHT22;6666;51.626;7.530;2022-12-15T14:37:43;0.00;99.90
13203;DHT22;6666;51.626;7.530;2022-12-15T14:40:14;-0.20;99.90
13203;DHT22;6666;51.626;7.530;2022-12-15T14:42:46;-0.20;99.90
13203;DHT22;6666;51.626;7.530;2022-12-15T14:45:18;-0.20;99.90
13203;DHT22;6666;51.626;7.530;2022-12-15T14:47:53;-0.10;99.90
13203;DHT22;6666;51.626;7.530;2022-12-15T14:50:45;0.00;99.90
13203;DHT22;6666;51.626;7.530;2022-12-15T14:53:16;0.00;99.90
13203;DHT22;6666;51.626;7.530;2022-12-15T14:55:46;-0.10;99.90
13203;DHT22;6666;51.626;7.530;2022-12-15T14:58:26;0.00;99.90
13203;DHT22;6666;51.626;7.530;2022-12-15T15:00:57;-0.10;99.90
13203;DHT22;6666;51.626;7.530;2022-12-15T15:03:34;-0.10;99.90
13203;DHT22;6666;51.626;7.530;2022-12-15T15:06:05;-0.20;99.90
13203;DHT22;6666;51.626;7.530;2022-12-15T15:08:46;-0.40;99.90
13203;DHT22;6666;51.626;7.530;2022-12-15T15:11:22;-0.60;99.90
13203;DHT22;6666;51.626;7.530;2022-12-15T15:13:54;-0.70;99.90
13203;DHT22;6666;51.626;7.530;2022-12-15T15:16:23;-0.70;99.90
13203;DHT22;6666;51.626;7.530;2022-12-15T15:18:54;-0.70;99.90
13203;DHT22;6666;51.626;7.530;2022-12-15T15:21:24;-0.80;99.90
13203;DHT22;6666;51.626;7.530;2022-12-15T15:24:00;-0.90;99.90
13203;DHT22;6666;51.626;7.530;2022-12-15T15:26:29;-0.90;99.90
13203;DHT22;6666;51.626;7.530;2022-12-15T15:28:57;-1.00;99.90
13203;DHT22;6666;51.626;7.530;2022-12-15T15:31:29;-1.10;99.90
13203;DHT22;6666;51.626;7.530;2022-12-15T15:34:08;-1.20;99.90
13203;DHT22;6666;51.626;7.530;2022-12-15T15:36:38;-1.30;99.90
13203;DHT22;6666;51.626;7.530;2022-12-15T15:39:12;-1.40;99.90
13203;DHT22;6666;51.626;7.530;2022-12-15T15:41:42;-1.50;99.90
13203;DHT22;6666;51.626;7.530;2022-12-15T15:44:12;-1.50;99.90
13203;DHT22;6666;51.626;7.530;2022-12-15T15:46:45;-1.50;99.90
13203;DHT22;6666;51.626;7.530;2022-12-15T15:49:17;-1.50;99.90
13203;DHT22;6666;51.626;7.530;2022-12-15T15:51:46;-1.30;99.90
13203;DHT22;6666;51.626;7.530;2022-12-15T15:54:18;-1.30;99.90
13203;DHT22;6666;51.626;7.530;2022-12-15T15:56:49;-1.30;99.90
13203;DHT22;6666;51.626;7.530;2022-12-15T15:59:19;-1.20;99.90
13203;DHT22;6666;51.626;7.530;2022-12-15T16:01:51;-1.50;99.90
13203;DHT22;6666;51.626;7.530;2022-12-15T16:04:21;-1.60;99.90
13203;DHT22;6666;51.626;7.530;2022-12-15T16:06:50;-1.70;99.90
13203;DHT22;6666;51.626;7.530;2022-12-15T16:09:20;-1.80;99.90
13203;DHT22;6666;51.626;7.530;2022-12-15T16:11:50;-1.70;99.90
13203;DHT22;6666;51.626;7.530;2022-12-15T16:14:18;-1.80;99.90
13203;DHT22;6666;51.626;7.530;2022-12-15T16:16:47;-1.80;99.90
13203;DHT22;6666;51.626;7.530;2022-12-15T16:19:15;-1.90;99.90
13203;DHT22;6666;51.626;7.530;2022-12-15T16:21:43;-2.10;99.90
13203;DHT22;6666;51.626;7.530;2022-12-15T16:24:17;-2.00;99.90
13203;DHT22;6666;51.626;7.530;2022-12-15T16:26:49;-2.10;99.90
13203;DHT22;6666;51.626;7.530;2022-12-15T16:29:18;-2.00;99.90
13203;DHT22;6666;51.626;7.530;2022-12-15T16:31:47;-2.10;99.90
13203;DHT22;6666;51.626;7.530;2022-12-15T16:34:16;-2.20;99.90
13203;DHT22;6666;51.626;7.530;2022-12-15T16:36:45;-2.20;99.90
13203;DHT22;6666;51.626;7.530;2022-12-15T16:39:25;-2.20;99.90
13203;DHT22;6666;51.626;7.530;2022-12-15T16:41:56;-2.20;99.90
13203;DHT22;6666;51.626;7.530;2022-12-15T16:44:25;-2.10;99.90
13203;DHT22;6666;51.626;7.530;2022-12-15T16:46:55;-2.10;99.90
13203;DHT22;6666;51.626;7.530;2022-12-15T16:49:24;-2.00;99.90
13203;DHT22;6666;51.626;7.530;2022-12-15T16:51:53;-2.00;99.90
13203;DHT22;6666;51.626;7.530;2022-12-15T16:54:24;-2.30;99.90
13203;DHT22;6666;51.626;7.530;2022-12-15T16:56:53;-2.30;99.90
13203;DHT22;6666;51.626;7.530;2022-12-15T16:59:24;-2.40;99.90